sensor_id;sensor_type;location;lat;lon;timestamp;P1;durP1;ratioP1;P2;durP2;ratioP2
84527;SDS011;74768;51.152;6.196;2024-02-21T00:00:38;25.07;;;9.83;;
84527;SDS011;74768;51.152;6.196;2024-02-21T00:03:04;30.33;;;11.68;;
84527;SDS011;74768;51.152;6.196;2024-02-21T00:05:29;28.70;;;10.30;;
84527;SDS011;74768;51.152;6.196;2024-02-21T00:07:55;24.50;;;9.43;;
84527;SDS011;74768;51.152;6.196;2024-02-21T00:10:20;23.90;;;9.82;;
84527;SDS011;74768;51.152;6.196;2024-02-21T00:12:46;25.65;;;10.98;;
84527;SDS011;74768;51.152;6.196;2024-02-21T00:15:12;24.02;;;9.43;;
84527;SDS011;74768;51.152;6.196;2024-02-21T00:17:38;23.10;;;9.67;;
84527;SDS011;74768;51.152;6.196;2024-02-21T00:20:03;24.73;;;10.30;;
84527;SDS011;74768;51.152;6.196;2024-02-21T00:22:29;28.23;;;10.05;;
84527;SDS011;74768;51.152;6.196;2024-02-21T00:24:56;28.35;;;10.60;;
84527;SDS011;74768;51.152;6.196;2024-02-21T00:27:23;26.73;;;10.13;;
84527;SDS011;74768;51.152;6.196;2024-02-21T00:29:48;27.25;;;10.10;;
84527;SDS011;74768;51.152;6.196;2024-02-21T00:32:14;18.40;;;8.20;;
84527;SDS011;74768;51.152;6.196;2024-02-21T00:34:39;25.42;;;10.93;;
84527;SDS011;74768;51.152;6.196;2024-02-21T00:37:04;22.08;;;9.35;;
84527;SDS011;74768;51.152;6.196;2024-02-21T00:39:30;25.85;;;9.68;;
84527;SDS011;74768;51.152;6.196;2024-02-21T00:41:56;28.20;;;9.38;;
84527;SDS011;74768;51.152;6.196;2024-02-21T00:44:21;23.13;;;10.75;;
84527;SDS011;74768;51.152;6.196;2024-02-21T00:46:46;24.60;;;9.70;;
84527;SDS011;74768;51.152;6.196;2024-02-21T00:49:12;23.30;;;9.63;;
84527;SDS011;74768;51.152;6.196;2024-02-21T00:51:37;21.75;;;8.65;;
84527;SDS011;74768;51.152;6.196;2024-02-21T00:54:03;30.40;;;10.63;;
84527;SDS011;74768;51.152;6.196;2024-02-21T00:56:28;23.55;;;9.27;;
84527;SDS011;74768;51.152;6.196;2024-02-21T00:58:54;20.77;;;10.02;;
84527;SDS011;74768;51.152;6.196;2024-02-21T01:01:23;17.85;;;9.00;;
84527;SDS011;74768;51.152;6.196;2024-02-21T01:03:50;18.73;;;9.07;;
84527;SDS011;74768;51.152;6.196;2024-02-21T01:06:16;21.08;;;8.57;;
84527;SDS011;74768;51.152;6.196;2024-02-21T01:08:41;27.53;;;9.73;;
84527;SDS011;74768;51.152;6.196;2024-02-21T01:11:06;25.03;;;10.00;;
84527;SDS011;74768;51.152;6.196;2024-02-21T01:13:32;18.92;;;8.68;;
84527;SDS011;74768;51.152;6.196;2024-02-21T01:15:58;25.30;;;8.98;;
84527;SDS011;74768;51.152;6.196;2024-02-21T01:18:23;24.83;;;9.10;;
84527;SDS011;74768;51.152;6.196;2024-02-21T01:20:48;22.07;;;9.40;;
84527;SDS011;74768;51.152;6.196;2024-02-21T01:23:13;18.25;;;8.35;;
84527;SDS011;74768;51.152;6.196;2024-02-21T01:25:39;24.48;;;9.68;;
84527;SDS011;74768;51.152;6.196;2024-02-21T01:28:04;18.35;;;8.50;;
84527;SDS011;74768;51.152;6.196;2024-02-21T01:30:30;19.98;;;9.40;;
84527;SDS011;74768;51.152;6.196;2024-02-21T01:32:55;18.52;;;8.75;;
84527;SDS011;74768;51.152;6.196;2024-02-21T01:35:20;19.80;;;8.57;;
84527;SDS011;74768;51.152;6.196;2024-02-21T01:37:45;25.50;;;9.53;;
84527;SDS011;74768;51.152;6.196;2024-02-21T01:40:11;20.97;;;9.40;;
84527;SDS011;74768;51.152;6.196;2024-02-21T01:42:40;23.73;;;8.70;;
84527;SDS011;74768;51.152;6.196;2024-02-21T01:45:08;23.38;;;9.45;;
84527;SDS011;74768;51.152;6.196;2024-02-21T01:47:33;20.88;;;7.90;;
84527;SDS011;74768;51.152;6.196;2024-02-21T01:49:59;19.15;;;7.80;;
84527;SDS011;74768;51.152;6.196;2024-02-21T01:52:27;19.02;;;8.52;;
84527;SDS011;74768;51.152;6.196;2024-02-21T01:54:53;20.27;;;8.20;;
84527;SDS011;74768;51.152;6.196;2024-02-21T01:57:19;20.90;;;8.98;;
84527;SDS011;74768;51.152;6.196;2024-02-21T01:59:44;20.23;;;9.38;;
84527;SDS011;74768;51.152;6.196;2024-02-21T02:02:10;22.38;;;8.45;;
84527;SDS011;74768;51.152;6.196;2024-02-21T02:04:35;23.77;;;9.82;;
84527;SDS011;74768;51.152;6.196;2024-02-21T02:07:03;23.90;;;8.52;;
84527;SDS011;74768;51.152;6.196;2024-02-21T02:09:31;20.60;;;8.40;;
84527;SDS011;74768;51.152;6.196;2024-02-21T02:11:57;19.48;;;8.25;;
84527;SDS011;74768;51.152;6.196;2024-02-21T02:14:23;18.77;;;7.85;;
84527;SDS011;74768;51.152;6.196;2024-02-21T02:16:48;21.30;;;8.73;;
84527;SDS011;74768;51.152;6.196;2024-02-21T02:19:14;16.27;;;7.83;;
84527;SDS011;74768;51.152;6.196;2024-02-21T02:21:41;18.95;;;7.45;;
84527;SDS011;74768;51.152;6.196;2024-02-21T02:24:13;16.70;;;7.78;;
84527;SDS011;74768;51.152;6.196;2024-02-21T02:26:39;21.40;;;8.15;;
84527;SDS011;74768;51.152;6.196;2024-02-21T02:29:04;27.05;;;10.18;;
84527;SDS011;74768;51.152;6.196;2024-02-21T02:31:30;20.92;;;8.20;;
84527;SDS011;74768;51.152;6.196;2024-02-21T02:33:56;21.58;;;9.52;;
84527;SDS011;74768;51.152;6.196;2024-02-21T02:36:21;19.83;;;9.13;;
84527;SDS011;74768;51.152;6.196;2024-02-21T02:38:47;20.90;;;9.23;;
84527;SDS011;74768;51.152;6.196;2024-02-21T02:41:12;19.50;;;8.63;;
84527;SDS011;74768;51.152;6.196;2024-02-21T02:43:37;17.87;;;8.20;;
84527;SDS011;74768;51.152;6.196;2024-02-21T02:46:02;19.02;;;8.13;;
84527;SDS011;74768;51.152;6.196;2024-02-21T02:48:28;22.48;;;8.65;;
84527;SDS011;74768;51.152;6.196;2024-02-21T02:50:54;19.70;;;7.68;;
84527;SDS011;74768;51.152;6.196;2024-02-21T02:53:19;20.93;;;8.40;;
84527;SDS011;74768;51.152;6.196;2024-02-21T02:55:44;17.53;;;7.67;;
84527;SDS011;74768;51.152;6.196;2024-02-21T02:58:10;22.53;;;8.27;;
84527;SDS011;74768;51.152;6.196;2024-02-21T03:00:35;22.40;;;7.78;;
84527;SDS011;74768;51.152;6.196;2024-02-21T03:03:01;15.18;;;7.40;;
84527;SDS011;74768;51.152;6.196;2024-02-21T03:05:30;15.68;;;7.63;;
84527;SDS011;74768;51.152;6.196;2024-02-21T03:07:56;20.92;;;8.32;;
84527;SDS011;74768;51.152;6.196;2024-02-21T03:10:22;18.63;;;7.10;;
84527;SDS011;74768;51.152;6.196;2024-02-21T03:12:47;24.77;;;7.77;;
84527;SDS011;74768;51.152;6.196;2024-02-21T03:15:18;26.08;;;7.85;;
84527;SDS011;74768;51.152;6.196;2024-02-21T03:17:43;21.65;;;8.07;;
84527;SDS011;74768;51.152;6.196;2024-02-21T03:20:08;19.25;;;7.65;;
84527;SDS011;74768;51.152;6.196;2024-02-21T03:22:34;18.83;;;7.93;;
84527;SDS011;74768;51.152;6.196;2024-02-21T03:25:00;15.68;;;6.70;;
84527;SDS011;74768;51.152;6.196;2024-02-21T03:27:26;13.43;;;6.82;;
84527;SDS011;74768;51.152;6.196;2024-02-21T03:29:51;15.35;;;6.30;;
84527;SDS011;74768;51.152;6.196;2024-02-21T03:32:16;12.98;;;5.72;;
84527;SDS011;74768;51.152;6.196;2024-02-21T03:34:42;17.77;;;6.45;;
84527;SDS011;74768;51.152;6.196;2024-02-21T03:37:07;19.13;;;6.93;;
84527;SDS011;74768;51.152;6.196;2024-02-21T03:39:32;22.40;;;7.15;;
84527;SDS011;74768;51.152;6.196;2024-02-21T03:41:58;14.80;;;6.05;;
84527;SDS011;74768;51.152;6.196;2024-02-21T03:44:29;16.75;;;6.65;;
84527;SDS011;74768;51.152;6.196;2024-02-21T03:46:54;13.40;;;6.15;;
84527;SDS011;74768;51.152;6.196;2024-02-21T03:49:20;12.57;;;6.33;;
84527;SDS011;74768;51.152;6.196;2024-02-21T03:51:45;11.73;;;6.23;;
84527;SDS011;74768;51.152;6.196;2024-02-21T03:54:10;16.90;;;6.22;;
84527;SDS011;74768;51.152;6.196;2024-02-21T03:56:38;19.07;;;6.10;;
84527;SDS011;74768;51.152;6.196;2024-02-21T03:59:05;17.17;;;6.50;;
84527;SDS011;74768;51.152;6.196;2024-02-21T04:01:31;14.00;;;6.40;;
84527;SDS011;74768;51.152;6.196;2024-02-21T04:03:56;14.60;;;6.60;;
84527;SDS011;74768;51.152;6.196;2024-02-21T04:06:21;13.63;;;6.37;;
84527;SDS011;74768;51.152;6.196;2024-02-21T04:08:47;15.43;;;6.00;;
84527;SDS011;74768;51.152;6.196;2024-02-21T04:11:12;19.50;;;6.40;;
84527;SDS011;74768;51.152;6.196;2024-02-21T04:13:37;15.23;;;7.00;;
84527;SDS011;74768;51.152;6.196;2024-02-21T04:16:02;14.47;;;7.43;;
84527;SDS011;74768;51.152;6.196;2024-02-21T04:18:29;10.38;;;5.57;;
84527;SDS011;74768;51.152;6.196;2024-02-21T04:20:54;13.20;;;5.57;;
84527;SDS011;74768;51.152;6.196;2024-02-21T04:23:20;16.10;;;6.65;;
84527;SDS011;74768;51.152;6.196;2024-02-21T04:25:45;14.70;;;5.93;;
84527;SDS011;74768;51.152;6.196;2024-02-21T04:28:10;11.83;;;5.63;;
84527;SDS011;74768;51.152;6.196;2024-02-21T04:30:36;9.40;;;5.60;;
84527;SDS011;74768;51.152;6.196;2024-02-21T04:33:01;16.37;;;5.97;;
84527;SDS011;74768;51.152;6.196;2024-02-21T04:35:26;11.07;;;5.85;;
84527;SDS011;74768;51.152;6.196;2024-02-21T04:37:51;14.17;;;5.87;;
84527;SDS011;74768;51.152;6.196;2024-02-21T04:40:17;14.40;;;6.13;;
84527;SDS011;74768;51.152;6.196;2024-02-21T04:42:42;16.15;;;6.15;;
84527;SDS011;74768;51.152;6.196;2024-02-21T04:45:08;15.52;;;6.43;;
84527;SDS011;74768;51.152;6.196;2024-02-21T04:47:33;11.65;;;5.55;;
84527;SDS011;74768;51.152;6.196;2024-02-21T04:49:59;14.57;;;6.10;;
84527;SDS011;74768;51.152;6.196;2024-02-21T04:52:24;16.53;;;6.93;;
84527;SDS011;74768;51.152;6.196;2024-02-21T04:54:50;15.93;;;6.37;;
84527;SDS011;74768;51.152;6.196;2024-02-21T04:57:16;16.00;;;6.38;;
84527;SDS011;74768;51.152;6.196;2024-02-21T04:59:44;12.07;;;6.03;;
84527;SDS011;74768;51.152;6.196;2024-02-21T05:02:10;14.70;;;5.97;;
84527;SDS011;74768;51.152;6.196;2024-02-21T05:04:36;20.95;;;6.65;;
84527;SDS011;74768;51.152;6.196;2024-02-21T05:07:03;16.55;;;6.60;;
84527;SDS011;74768;51.152;6.196;2024-02-21T05:09:29;15.30;;;6.30;;
84527;SDS011;74768;51.152;6.196;2024-02-21T05:11:54;20.02;;;6.45;;
84527;SDS011;74768;51.152;6.196;2024-02-21T05:14:20;14.43;;;6.47;;
84527;SDS011;74768;51.152;6.196;2024-02-21T05:16:45;15.23;;;6.70;;
84527;SDS011;74768;51.152;6.196;2024-02-21T05:19:10;15.17;;;6.40;;
84527;SDS011;74768;51.152;6.196;2024-02-21T05:21:36;18.63;;;7.50;;
84527;SDS011;74768;51.152;6.196;2024-02-21T05:24:01;19.27;;;6.80;;
84527;SDS011;74768;51.152;6.196;2024-02-21T05:26:27;18.17;;;7.38;;
84527;SDS011;74768;51.152;6.196;2024-02-21T05:28:52;20.75;;;6.85;;
84527;SDS011;74768;51.152;6.196;2024-02-21T05:31:18;14.68;;;6.40;;
84527;SDS011;74768;51.152;6.196;2024-02-21T05:33:44;15.95;;;6.40;;
84527;SDS011;74768;51.152;6.196;2024-02-21T05:36:10;19.40;;;7.13;;
84527;SDS011;74768;51.152;6.196;2024-02-21T05:38:36;17.00;;;6.35;;
84527;SDS011;74768;51.152;6.196;2024-02-21T05:41:02;14.82;;;7.03;;
84527;SDS011;74768;51.152;6.196;2024-02-21T05:43:27;14.88;;;7.22;;
84527;SDS011;74768;51.152;6.196;2024-02-21T05:45:53;22.90;;;6.27;;
84527;SDS011;74768;51.152;6.196;2024-02-21T05:48:18;13.65;;;5.68;;
84527;SDS011;74768;51.152;6.196;2024-02-21T05:50:43;13.05;;;6.72;;
84527;SDS011;74768;51.152;6.196;2024-02-21T05:53:09;20.02;;;7.50;;
84527;SDS011;74768;51.152;6.196;2024-02-21T05:55:35;15.95;;;6.78;;
84527;SDS011;74768;51.152;6.196;2024-02-21T05:58:00;16.80;;;6.85;;
84527;SDS011;74768;51.152;6.196;2024-02-21T06:00:25;13.85;;;6.35;;
84527;SDS011;74768;51.152;6.196;2024-02-21T06:02:51;21.27;;;7.33;;
84527;SDS011;74768;51.152;6.196;2024-02-21T06:05:16;19.17;;;7.65;;
84527;SDS011;74768;51.152;6.196;2024-02-21T06:07:41;16.38;;;6.38;;
84527;SDS011;74768;51.152;6.196;2024-02-21T06:10:07;17.08;;;6.85;;
84527;SDS011;74768;51.152;6.196;2024-02-21T06:12:33;17.35;;;7.43;;
84527;SDS011;74768;51.152;6.196;2024-02-21T06:14:59;19.85;;;7.00;;
84527;SDS011;74768;51.152;6.196;2024-02-21T06:17:24;17.20;;;6.20;;
84527;SDS011;74768;51.152;6.196;2024-02-21T06:19:49;16.80;;;5.83;;
84527;SDS011;74768;51.152;6.196;2024-02-21T06:22:15;14.67;;;5.87;;
84527;SDS011;74768;51.152;6.196;2024-02-21T06:24:40;19.35;;;6.05;;
84527;SDS011;74768;51.152;6.196;2024-02-21T06:27:05;19.00;;;6.97;;
84527;SDS011;74768;51.152;6.196;2024-02-21T06:29:31;14.60;;;5.38;;
84527;SDS011;74768;51.152;6.196;2024-02-21T06:31:57;14.85;;;5.57;;
84527;SDS011;74768;51.152;6.196;2024-02-21T06:34:23;12.90;;;6.13;;
84527;SDS011;74768;51.152;6.196;2024-02-21T06:36:49;13.45;;;5.68;;
84527;SDS011;74768;51.152;6.196;2024-02-21T06:39:15;13.25;;;6.03;;
84527;SDS011;74768;51.152;6.196;2024-02-21T06:41:40;11.48;;;5.90;;
84527;SDS011;74768;51.152;6.196;2024-02-21T06:44:05;11.90;;;5.75;;
84527;SDS011;74768;51.152;6.196;2024-02-21T06:46:31;17.33;;;6.15;;
84527;SDS011;74768;51.152;6.196;2024-02-21T06:48:59;14.55;;;5.30;;
84527;SDS011;74768;51.152;6.196;2024-02-21T06:51:25;15.88;;;5.80;;
84527;SDS011;74768;51.152;6.196;2024-02-21T06:53:51;9.50;;;5.43;;
84527;SDS011;74768;51.152;6.196;2024-02-21T06:56:17;13.63;;;5.82;;
84527;SDS011;74768;51.152;6.196;2024-02-21T06:58:42;16.30;;;5.82;;
84527;SDS011;74768;51.152;6.196;2024-02-21T07:01:08;11.73;;;5.18;;
84527;SDS011;74768;51.152;6.196;2024-02-21T07:03:33;12.82;;;5.57;;
84527;SDS011;74768;51.152;6.196;2024-02-21T07:05:59;9.38;;;5.63;;
84527;SDS011;74768;51.152;6.196;2024-02-21T07:08:24;9.30;;;5.27;;
84527;SDS011;74768;51.152;6.196;2024-02-21T07:10:49;17.10;;;5.75;;
84527;SDS011;74768;51.152;6.196;2024-02-21T07:13:15;15.02;;;5.22;;
84527;SDS011;74768;51.152;6.196;2024-02-21T07:15:41;13.60;;;5.22;;
84527;SDS011;74768;51.152;6.196;2024-02-21T07:18:06;15.50;;;5.38;;
84527;SDS011;74768;51.152;6.196;2024-02-21T07:20:32;11.90;;;5.03;;
84527;SDS011;74768;51.152;6.196;2024-02-21T07:25:27;9.05;;;4.43;;
84527;SDS011;74768;51.152;6.196;2024-02-21T07:27:53;14.70;;;4.95;;
84527;SDS011;74768;51.152;6.196;2024-02-21T07:30:18;17.65;;;5.55;;
84527;SDS011;74768;51.152;6.196;2024-02-21T07:32:43;12.23;;;5.50;;
84527;SDS011;74768;51.152;6.196;2024-02-21T07:35:09;12.55;;;5.10;;
84527;SDS011;74768;51.152;6.196;2024-02-21T07:37:36;15.43;;;5.70;;
84527;SDS011;74768;51.152;6.196;2024-02-21T07:40:02;12.43;;;5.07;;
84527;SDS011;74768;51.152;6.196;2024-02-21T07:42:31;12.82;;;5.65;;
84527;SDS011;74768;51.152;6.196;2024-02-21T07:44:56;11.65;;;4.97;;
84527;SDS011;74768;51.152;6.196;2024-02-21T07:47:22;14.27;;;5.75;;
84527;SDS011;74768;51.152;6.196;2024-02-21T07:49:48;15.55;;;6.35;;
84527;SDS011;74768;51.152;6.196;2024-02-21T07:52:14;17.33;;;5.47;;
84527;SDS011;74768;51.152;6.196;2024-02-21T07:54:40;10.25;;;5.20;;
84527;SDS011;74768;51.152;6.196;2024-02-21T07:57:06;15.35;;;5.55;;
84527;SDS011;74768;51.152;6.196;2024-02-21T07:59:31;16.00;;;5.70;;
84527;SDS011;74768;51.152;6.196;2024-02-21T08:01:57;16.38;;;5.40;;
84527;SDS011;74768;51.152;6.196;2024-02-21T08:04:23;14.48;;;5.07;;
84527;SDS011;74768;51.152;6.196;2024-02-21T08:06:55;14.60;;;5.35;;
84527;SDS011;74768;51.152;6.196;2024-02-21T08:09:26;15.90;;;5.63;;
84527;SDS011;74768;51.152;6.196;2024-02-21T08:11:52;13.35;;;4.68;;
84527;SDS011;74768;51.152;6.196;2024-02-21T08:14:17;12.25;;;4.32;;
84527;SDS011;74768;51.152;6.196;2024-02-21T08:16:42;12.55;;;5.18;;
84527;SDS011;74768;51.152;6.196;2024-02-21T08:19:08;13.30;;;5.30;;
84527;SDS011;74768;51.152;6.196;2024-02-21T08:21:33;6.53;;;4.28;;
84527;SDS011;74768;51.152;6.196;2024-02-21T08:23:58;13.10;;;4.47;;
84527;SDS011;74768;51.152;6.196;2024-02-21T08:26:24;12.03;;;4.53;;
84527;SDS011;74768;51.152;6.196;2024-02-21T08:28:52;10.77;;;4.55;;
84527;SDS011;74768;51.152;6.196;2024-02-21T08:31:18;10.95;;;4.40;;
84527;SDS011;74768;51.152;6.196;2024-02-21T08:33:48;11.27;;;5.70;;
84527;SDS011;74768;51.152;6.196;2024-02-21T08:36:19;11.50;;;4.30;;
84527;SDS011;74768;51.152;6.196;2024-02-21T08:38:45;11.55;;;4.43;;
84527;SDS011;74768;51.152;6.196;2024-02-21T08:41:10;13.30;;;4.47;;
84527;SDS011;74768;51.152;6.196;2024-02-21T08:43:36;11.15;;;5.00;;
84527;SDS011;74768;51.152;6.196;2024-02-21T08:46:01;14.27;;;4.20;;
84527;SDS011;74768;51.152;6.196;2024-02-21T08:48:27;9.73;;;4.18;;
84527;SDS011;74768;51.152;6.196;2024-02-21T08:50:52;12.40;;;4.40;;
84527;SDS011;74768;51.152;6.196;2024-02-21T08:53:19;9.93;;;4.10;;
84527;SDS011;74768;51.152;6.196;2024-02-21T08:55:44;12.48;;;3.83;;
84527;SDS011;74768;51.152;6.196;2024-02-21T08:58:10;12.55;;;3.90;;
84527;SDS011;74768;51.152;6.196;2024-02-21T09:00:36;10.77;;;4.88;;
84527;SDS011;74768;51.152;6.196;2024-02-21T09:03:01;10.10;;;4.13;;
84527;SDS011;74768;51.152;6.196;2024-02-21T09:05:26;8.85;;;3.90;;
84527;SDS011;74768;51.152;6.196;2024-02-21T09:07:52;7.40;;;4.27;;
84527;SDS011;74768;51.152;6.196;2024-02-21T09:10:17;12.77;;;3.75;;
84527;SDS011;74768;51.152;6.196;2024-02-21T09:12:42;8.27;;;3.93;;
84527;SDS011;74768;51.152;6.196;2024-02-21T09:15:08;13.55;;;4.75;;
84527;SDS011;74768;51.152;6.196;2024-02-21T09:17:34;10.23;;;3.88;;
84527;SDS011;74768;51.152;6.196;2024-02-21T09:19:59;11.80;;;3.60;;
84527;SDS011;74768;51.152;6.196;2024-02-21T09:22:28;7.57;;;3.97;;
84527;SDS011;74768;51.152;6.196;2024-02-21T09:24:54;6.70;;;3.30;;
84527;SDS011;74768;51.152;6.196;2024-02-21T09:27:19;11.60;;;3.80;;
84527;SDS011;74768;51.152;6.196;2024-02-21T09:29:44;7.50;;;3.77;;
84527;SDS011;74768;51.152;6.196;2024-02-21T09:32:09;8.07;;;3.10;;
84527;SDS011;74768;51.152;6.196;2024-02-21T09:34:35;11.97;;;3.87;;
84527;SDS011;74768;51.152;6.196;2024-02-21T09:37:00;12.17;;;3.30;;
84527;SDS011;74768;51.152;6.196;2024-02-21T09:39:25;6.40;;;2.80;;
84527;SDS011;74768;51.152;6.196;2024-02-21T09:41:53;6.80;;;3.13;;
84527;SDS011;74768;51.152;6.196;2024-02-21T09:44:24;12.23;;;3.20;;
84527;SDS011;74768;51.152;6.196;2024-02-21T09:46:56;7.30;;;3.08;;
84527;SDS011;74768;51.152;6.196;2024-02-21T09:51:56;8.55;;;3.33;;
84527;SDS011;74768;51.152;6.196;2024-02-21T09:54:23;10.40;;;3.55;;
84527;SDS011;74768;51.152;6.196;2024-02-21T09:56:48;8.98;;;3.15;;
84527;SDS011;74768;51.152;6.196;2024-02-21T09:59:15;7.30;;;3.17;;
84527;SDS011;74768;51.152;6.196;2024-02-21T10:01:42;11.02;;;3.75;;
84527;SDS011;74768;51.152;6.196;2024-02-21T10:04:08;8.05;;;2.80;;
84527;SDS011;74768;51.152;6.196;2024-02-21T10:06:34;7.82;;;2.75;;
84527;SDS011;74768;51.152;6.196;2024-02-21T10:08:59;4.30;;;2.78;;
84527;SDS011;74768;51.152;6.196;2024-02-21T10:11:25;8.68;;;2.90;;
84527;SDS011;74768;51.152;6.196;2024-02-21T10:13:51;7.85;;;2.95;;
84527;SDS011;74768;51.152;6.196;2024-02-21T10:16:16;5.50;;;2.78;;
84527;SDS011;74768;51.152;6.196;2024-02-21T10:18:42;7.57;;;3.28;;
84527;SDS011;74768;51.152;6.196;2024-02-21T10:21:07;7.53;;;3.33;;
84527;SDS011;74768;51.152;6.196;2024-02-21T10:23:42;7.25;;;3.50;;
84527;SDS011;74768;51.152;6.196;2024-02-21T10:26:12;7.28;;;3.38;;
84527;SDS011;74768;51.152;6.196;2024-02-21T10:28:38;9.65;;;3.25;;
84527;SDS011;74768;51.152;6.196;2024-02-21T10:31:08;7.47;;;3.30;;
84527;SDS011;74768;51.152;6.196;2024-02-21T10:33:34;6.65;;;3.17;;
84527;SDS011;74768;51.152;6.196;2024-02-21T10:36:09;7.53;;;3.17;;
84527;SDS011;74768;51.152;6.196;2024-02-21T10:38:36;10.25;;;3.97;;
84527;SDS011;74768;51.152;6.196;2024-02-21T10:41:02;5.82;;;3.05;;
84527;SDS011;74768;51.152;6.196;2024-02-21T10:43:29;9.70;;;3.47;;
84527;SDS011;74768;51.152;6.196;2024-02-21T10:45:58;10.10;;;3.33;;
84527;SDS011;74768;51.152;6.196;2024-02-21T10:48:30;6.95;;;3.50;;
84527;SDS011;74768;51.152;6.196;2024-02-21T10:51:07;8.60;;;4.15;;
84527;SDS011;74768;51.152;6.196;2024-02-21T10:56:33;7.25;;;3.72;;
84527;SDS011;74768;51.152;6.196;2024-02-21T10:59:01;8.05;;;3.35;;
84527;SDS011;74768;51.152;6.196;2024-02-21T11:01:28;12.20;;;4.45;;
84527;SDS011;74768;51.152;6.196;2024-02-21T11:03:56;9.45;;;3.60;;
84527;SDS011;74768;51.152;6.196;2024-02-21T11:06:23;11.68;;;4.50;;
84527;SDS011;74768;51.152;6.196;2024-02-21T11:09:06;11.35;;;3.63;;
84527;SDS011;74768;51.152;6.196;2024-02-21T11:11:33;6.65;;;3.33;;
84527;SDS011;74768;51.152;6.196;2024-02-21T11:16:44;6.30;;;3.35;;
84527;SDS011;74768;51.152;6.196;2024-02-21T11:19:18;6.55;;;3.65;;
84527;SDS011;74768;51.152;6.196;2024-02-21T11:21:46;6.38;;;3.00;;
84527;SDS011;74768;51.152;6.196;2024-02-21T11:24:12;7.78;;;3.08;;
84527;SDS011;74768;51.152;6.196;2024-02-21T11:26:39;7.45;;;3.50;;
84527;SDS011;74768;51.152;6.196;2024-02-21T11:29:07;8.48;;;4.28;;
84527;SDS011;74768;51.152;6.196;2024-02-21T11:31:43;7.07;;;3.38;;
84527;SDS011;74768;51.152;6.196;2024-02-21T11:34:10;7.45;;;2.63;;
84527;SDS011;74768;51.152;6.196;2024-02-21T11:36:45;6.47;;;2.90;;
84527;SDS011;74768;51.152;6.196;2024-02-21T11:39:12;5.85;;;3.10;;
84527;SDS011;74768;51.152;6.196;2024-02-21T11:41:38;5.20;;;2.80;;
84527;SDS011;74768;51.152;6.196;2024-02-21T11:44:03;7.03;;;2.70;;
84527;SDS011;74768;51.152;6.196;2024-02-21T11:46:28;6.45;;;3.20;;
84527;SDS011;74768;51.152;6.196;2024-02-21T11:48:54;7.50;;;2.92;;
84527;SDS011;74768;51.152;6.196;2024-02-21T11:51:26;7.00;;;3.42;;
84527;SDS011;74768;51.152;6.196;2024-02-21T11:53:52;9.90;;;2.80;;
84527;SDS011;74768;51.152;6.196;2024-02-21T11:56:18;7.60;;;3.90;;
84527;SDS011;74768;51.152;6.196;2024-02-21T11:58:45;10.73;;;3.80;;
84527;SDS011;74768;51.152;6.196;2024-02-21T12:01:13;6.60;;;3.08;;
84527;SDS011;74768;51.152;6.196;2024-02-21T12:03:39;8.40;;;3.45;;
84527;SDS011;74768;51.152;6.196;2024-02-21T12:06:06;7.78;;;2.90;;
84527;SDS011;74768;51.152;6.196;2024-02-21T12:08:41;7.70;;;3.33;;
84527;SDS011;74768;51.152;6.196;2024-02-21T12:13:46;7.88;;;3.40;;
84527;SDS011;74768;51.152;6.196;2024-02-21T12:16:12;5.65;;;3.47;;
84527;SDS011;74768;51.152;6.196;2024-02-21T12:18:41;9.02;;;3.35;;
84527;SDS011;74768;51.152;6.196;2024-02-21T12:21:06;7.95;;;3.53;;
84527;SDS011;74768;51.152;6.196;2024-02-21T12:23:32;8.30;;;3.95;;
84527;SDS011;74768;51.152;6.196;2024-02-21T12:25:58;8.13;;;2.90;;
84527;SDS011;74768;51.152;6.196;2024-02-21T12:28:24;7.18;;;2.70;;
84527;SDS011;74768;51.152;6.196;2024-02-21T12:30:49;8.57;;;3.28;;
84527;SDS011;74768;51.152;6.196;2024-02-21T12:33:15;6.23;;;3.40;;
84527;SDS011;74768;51.152;6.196;2024-02-21T12:35:40;10.77;;;3.97;;
84527;SDS011;74768;51.152;6.196;2024-02-21T12:38:06;9.35;;;3.78;;
84527;SDS011;74768;51.152;6.196;2024-02-21T12:40:31;4.93;;;2.78;;
84527;SDS011;74768;51.152;6.196;2024-02-21T12:42:58;5.88;;;3.60;;
84527;SDS011;74768;51.152;6.196;2024-02-21T12:45:25;5.45;;;2.65;;
84527;SDS011;74768;51.152;6.196;2024-02-21T12:47:50;11.13;;;3.53;;
84527;SDS011;74768;51.152;6.196;2024-02-21T12:50:16;8.65;;;3.50;;
84527;SDS011;74768;51.152;6.196;2024-02-21T12:52:41;11.03;;;3.47;;
84527;SDS011;74768;51.152;6.196;2024-02-21T12:55:06;9.35;;;3.35;;
84527;SDS011;74768;51.152;6.196;2024-02-21T12:57:33;6.03;;;3.10;;
84527;SDS011;74768;51.152;6.196;2024-02-21T12:59:58;8.13;;;3.23;;
84527;SDS011;74768;51.152;6.196;2024-02-21T13:02:24;6.60;;;3.35;;
84527;SDS011;74768;51.152;6.196;2024-02-21T13:04:50;6.72;;;3.38;;
84527;SDS011;74768;51.152;6.196;2024-02-21T13:07:15;9.87;;;3.53;;
84527;SDS011;74768;51.152;6.196;2024-02-21T13:09:40;7.90;;;3.67;;
84527;SDS011;74768;51.152;6.196;2024-02-21T13:12:05;10.33;;;3.73;;
84527;SDS011;74768;51.152;6.196;2024-02-21T13:14:31;8.73;;;3.35;;
84527;SDS011;74768;51.152;6.196;2024-02-21T13:16:58;6.88;;;3.60;;
84527;SDS011;74768;51.152;6.196;2024-02-21T13:19:23;7.28;;;3.50;;
84527;SDS011;74768;51.152;6.196;2024-02-21T13:21:48;7.60;;;3.00;;
84527;SDS011;74768;51.152;6.196;2024-02-21T13:24:13;9.80;;;3.40;;
84527;SDS011;74768;51.152;6.196;2024-02-21T13:26:39;6.90;;;3.00;;
84527;SDS011;74768;51.152;6.196;2024-02-21T13:29:04;10.80;;;3.27;;
84527;SDS011;74768;51.152;6.196;2024-02-21T13:31:29;8.93;;;3.13;;
84527;SDS011;74768;51.152;6.196;2024-02-21T13:33:55;6.60;;;3.15;;
84527;SDS011;74768;51.152;6.196;2024-02-21T13:36:20;9.47;;;3.97;;
84527;SDS011;74768;51.152;6.196;2024-02-21T13:38:45;7.63;;;3.10;;
84527;SDS011;74768;51.152;6.196;2024-02-21T13:41:11;5.95;;;2.92;;
84527;SDS011;74768;51.152;6.196;2024-02-21T13:43:37;10.40;;;3.70;;
84527;SDS011;74768;51.152;6.196;2024-02-21T13:46:02;8.03;;;2.73;;
84527;SDS011;74768;51.152;6.196;2024-02-21T13:48:30;6.50;;;2.88;;
84527;SDS011;74768;51.152;6.196;2024-02-21T13:50:55;6.47;;;3.70;;
84527;SDS011;74768;51.152;6.196;2024-02-21T13:53:21;6.90;;;2.92;;
84527;SDS011;74768;51.152;6.196;2024-02-21T13:55:47;7.15;;;3.10;;
84527;SDS011;74768;51.152;6.196;2024-02-21T13:58:13;7.65;;;3.17;;
84527;SDS011;74768;51.152;6.196;2024-02-21T14:00:39;9.38;;;3.47;;
84527;SDS011;74768;51.152;6.196;2024-02-21T14:03:04;7.20;;;3.43;;
84527;SDS011;74768;51.152;6.196;2024-02-21T14:05:29;6.22;;;2.85;;
84527;SDS011;74768;51.152;6.196;2024-02-21T14:07:55;6.18;;;2.92;;
84527;SDS011;74768;51.152;6.196;2024-02-21T14:10:21;6.80;;;2.90;;
84527;SDS011;74768;51.152;6.196;2024-02-21T14:12:46;6.97;;;3.20;;
84527;SDS011;74768;51.152;6.196;2024-02-21T14:15:13;6.07;;;2.78;;
84527;SDS011;74768;51.152;6.196;2024-02-21T14:17:38;6.28;;;2.72;;
84527;SDS011;74768;51.152;6.196;2024-02-21T14:20:04;6.55;;;3.25;;
84527;SDS011;74768;51.152;6.196;2024-02-21T14:22:30;9.25;;;2.80;;
84527;SDS011;74768;51.152;6.196;2024-02-21T14:24:55;4.87;;;2.97;;
84527;SDS011;74768;51.152;6.196;2024-02-21T14:27:21;5.97;;;2.72;;
84527;SDS011;74768;51.152;6.196;2024-02-21T14:29:46;6.18;;;2.60;;
84527;SDS011;74768;51.152;6.196;2024-02-21T14:32:12;5.50;;;2.80;;
84527;SDS011;74768;51.152;6.196;2024-02-21T14:34:38;7.72;;;3.03;;
84527;SDS011;74768;51.152;6.196;2024-02-21T14:37:03;9.70;;;3.10;;
84527;SDS011;74768;51.152;6.196;2024-02-21T14:39:29;6.75;;;2.90;;
84527;SDS011;74768;51.152;6.196;2024-02-21T14:41:54;7.10;;;2.38;;
84527;SDS011;74768;51.152;6.196;2024-02-21T14:44:20;8.43;;;2.80;;